Time;durP1;ratioP1;P1;durP2;ratioP2;P2;SDS_P1;SDS_P2;PMS_P1;PMS_P2;Temp;Humidity;BMP_temperature;BMP_pressure;BME280_temperature;BME280_humidity;BME280_pressure;Samples;Min_cycle;Max_cycle;Signal;HPM_P1;HPM_P2
2022/01/16 00:06:23;;;;;;;89.60;14.93;;;;;;;;;;5063731;28;20121;-70
2022/01/16 00:08:49;;;;;;;72.65;15.05;;;;;;;;;;5063992;28;20082;-70
2022/01/16 00:11:14;;;;;;;47.20;14.82;;;;;;;;;;5062082;28;20119;-71
2022/01/16 00:13:41;;;;;;;45.42;12.63;;;;;;;;;;5078306;28;20065;-71
2022/01/16 00:16:09;;;;;;;173.75;14.45;;;;;;;;;;5063445;28;20035;-71
2022/01/16 00:18:49;;;;;;;208.98;17.33;;;;;;;;;;5061612;28;20809;-71
2022/01/16 00:21:31;;;;;;;23.80;12.18;;;;;;;;;;5063896;28;20530;-71
2022/01/16 00:23:57;;;;;;;85.40;14.65;;;;;;;;;;5063493;28;20534;-71
2022/01/16 00:26:23;;;;;;;98.18;14.82;;;;;;;;;;5061171;28;20089;-71
2022/01/16 00:28:49;;;;;;;89.60;14.73;;;;;;;;;;5061796;28;20094;-69
2022/01/16 00:31:16;;;;;;;34.08;14.43;;;;;;;;;;5063017;28;20044;-72
2022/01/16 00:33:44;;;;;;;59.38;14.27;;;;;;;;;;5063276;28;20105;-71
2022/01/16 00:36:14;;;;;;;103.85;15.55;;;;;;;;;;5061951;28;20039;-71
2022/01/16 00:38:42;;;;;;;112.57;14.82;;;;;;;;;;5062910;28;20043;-72
2022/01/16 00:41:08;;;;;;;91.25;15.45;;;;;;;;;;5063024;28;20432;-70
2022/01/16 00:43:33;;;;;;;40.35;15.00;;;;;;;;;;5078300;28;20058;-72
2022/01/16 00:45:59;;;;;;;51.08;14.32;;;;;;;;;;5062631;28;20143;-71
2022/01/16 00:48:24;;;;;;;68.90;16.40;;;;;;;;;;5061470;28;20046;-70
2022/01/16 00:50:50;;;;;;;29.90;12.55;;;;;;;;;;5062720;28;20398;-72
2022/01/16 00:53:16;;;;;;;82.72;14.50;;;;;;;;;;5061032;28;20037;-71
2022/01/16 00:55:41;;;;;;;133.52;13.65;;;;;;;;;;5062439;28;21220;-71
2022/01/16 00:58:07;;;;;;;97.18;13.77;;;;;;;;;;5061437;28;20116;-71
2022/01/16 01:00:33;;;;;;;137.02;13.82;;;;;;;;;;5062307;28;20060;-70
2022/01/16 01:03:02;;;;;;;222.73;16.98;;;;;;;;;;5063017;28;20081;-70
2022/01/16 01:05:28;;;;;;;175.60;15.43;;;;;;;;;;5062355;28;20040;-70
2022/01/16 01:07:54;;;;;;;64.60;14.05;;;;;;;;;;5062629;28;20508;-70
2022/01/16 01:10:27;;;;;;;48.83;14.40;;;;;;;;;;5061339;28;20036;-72
2022/01/16 01:12:54;;;;;;;91.97;13.75;;;;;;;;;;5061969;28;20036;-72
2022/01/16 01:15:25;;;;;;;142.00;14.73;;;;;;;;;;5077718;28;20039;-71
2022/01/16 01:17:51;;;;;;;99.90;14.10;;;;;;;;;;5061351;28;20114;-71
2022/01/16 01:20:19;;;;;;;61.15;12.77;;;;;;;;;;5061092;28;20074;-72
2022/01/16 01:22:47;;;;;;;178.35;16.00;;;;;;;;;;5061954;28;20037;-72
2022/01/16 01:25:14;;;;;;;59.13;12.75;;;;;;;;;;5062474;28;20036;-74
2022/01/16 01:27:43;;;;;;;139.63;14.25;;;;;;;;;;5060470;28;20044;-71
2022/01/16 01:30:10;;;;;;;117.68;14.77;;;;;;;;;;5044133;28;20048;-72
2022/01/16 01:32:40;;;;;;;93.75;14.05;;;;;;;;;;5059866;28;20548;-71
2022/01/16 01:35:08;;;;;;;55.63;13.27;;;;;;;;;;5061583;28;20032;-72
2022/01/16 01:37:34;;;;;;;62.70;13.55;;;;;;;;;;5060317;28;20127;-71
2022/01/16 01:40:00;;;;;;;150.65;14.35;;;;;;;;;;5060514;28;20582;-72
2022/01/16 01:42:32;;;;;;;67.95;13.27;;;;;;;;;;5059451;28;20069;-71
2022/01/16 01:53:16;;;;;;;58.35;12.98;;;;;;;;;;5060161;28;20040;-72
2022/01/16 01:55:44;;;;;;;93.22;14.38;;;;;;;;;;5061373;28;20493;-74
2022/01/16 01:58:10;;;;;;;72.18;12.38;;;;;;;;;;5061736;28;20401;-71
2022/01/16 02:00:38;;;;;;;76.28;11.98;;;;;;;;;;5060857;28;20032;-74
2022/01/16 02:05:30;;;;;;;71.47;13.10;;;;;;;;;;5060604;28;20036;-73
2022/01/16 02:08:06;;;;;;;64.50;13.63;;;;;;;;;;5061517;28;20080;-72
2022/01/16 02:10:32;;;;;;;34.83;12.25;;;;;;;;;;5059768;28;20033;-72
2022/01/16 02:13:02;;;;;;;101.03;13.48;;;;;;;;;;5059579;28;20036;-70
2022/01/16 02:31:41;;;;;;;38.10;12.07;;;;;;;;;;5060352;28;20036;-71
2022/01/16 02:36:56;;;;;;;46.95;12.73;;;;;;;;;;5059440;28;20903;-70
2022/01/16 02:39:25;;;;;;;56.40;11.48;;;;;;;;;;5059432;28;20060;-70
2022/01/16 02:41:56;;;;;;;73.05;13.05;;;;;;;;;;5059131;28;20051;-70
2022/01/16 02:44:31;;;;;;;51.22;13.25;;;;;;;;;;5059190;28;20110;-71
2022/01/16 02:46:57;;;;;;;33.95;12.57;;;;;;;;;;5041216;28;20615;-69
2022/01/16 02:49:24;;;;;;;73.70;12.60;;;;;;;;;;5058471;28;20041;-71
2022/01/16 02:51:59;;;;;;;35.97;12.05;;;;;;;;;;5059272;28;20055;-71
2022/01/16 02:54:26;;;;;;;111.25;14.07;;;;;;;;;;5042719;28;20119;-70
2022/01/16 02:56:52;;;;;;;58.50;13.55;;;;;;;;;;5060825;28;20040;-72
2022/01/16 02:59:22;;;;;;;24.92;12.20;;;;;;;;;;5057986;28;20055;-70
2022/01/16 03:01:48;;;;;;;23.63;11.20;;;;;;;;;;5042583;28;20036;-73
2022/01/16 03:04:15;;;;;;;42.10;12.82;;;;;;;;;;5060871;28;20036;-70
2022/01/16 03:06:40;;;;;;;35.65;12.15;;;;;;;;;;5059202;28;20078;-72
2022/01/16 03:09:07;;;;;;;52.17;11.85;;;;;;;;;;5060635;28;20109;-71
2022/01/16 03:11:39;;;;;;;24.52;11.57;;;;;;;;;;5059892;28;20056;-72
2022/01/16 03:14:09;;;;;;;78.00;14.13;;;;;;;;;;5059363;28;20044;-72
2022/01/16 03:16:35;;;;;;;45.90;12.82;;;;;;;;;;5061063;28;20495;-73
2022/01/16 03:21:54;;;;;;;39.55;11.13;;;;;;;;;;5060034;28;20579;-71
2022/01/16 03:24:25;;;;;;;181.60;14.70;;;;;;;;;;5060352;28;20043;-70
2022/01/16 03:27:02;;;;;;;77.93;12.15;;;;;;;;;;5059244;28;20056;-72
2022/01/16 03:29:29;;;;;;;74.75;12.18;;;;;;;;;;5060191;28;20122;-73
2022/01/16 03:31:56;;;;;;;32.42;11.90;;;;;;;;;;5058186;28;20032;-72
2022/01/16 03:34:21;;;;;;;33.38;12.40;;;;;;;;;;5042462;28;20606;-72
2022/01/16 03:36:48;;;;;;;31.48;12.27;;;;;;;;;;5075783;28;20136;-73
2022/01/16 03:39:13;;;;;;;102.47;13.90;;;;;;;;;;5060752;28;20488;-71
2022/01/16 03:41:39;;;;;;;95.20;13.13;;;;;;;;;;5060838;28;20044;-72
2022/01/16 03:44:06;;;;;;;112.50;11.40;;;;;;;;;;5059403;28;20071;-71
2022/01/16 03:46:34;;;;;;;117.20;12.73;;;;;;;;;;5060034;28;20040;-72
2022/01/16 03:49:04;;;;;;;290.90;16.17;;;;;;;;;;5059986;28;20044;-71
2022/01/16 03:51:31;;;;;;;108.60;13.02;;;;;;;;;;5063048;28;20128;-71
2022/01/16 03:53:57;;;;;;;135.70;12.43;;;;;;;;;;5063020;28;20073;-71
2022/01/16 03:56:22;;;;;;;84.32;13.27;;;;;;;;;;5063688;28;20093;-71
2022/01/16 03:58:48;;;;;;;98.45;12.82;;;;;;;;;;5063708;28;20051;-72
2022/01/16 04:01:14;;;;;;;67.10;12.82;;;;;;;;;;5078664;28;20083;-72
2022/01/16 04:03:39;;;;;;;113.75;13.00;;;;;;;;;;5046076;28;20085;-72
2022/01/16 04:06:05;;;;;;;50.65;11.90;;;;;;;;;;5062312;28;20033;-72
2022/01/16 04:08:30;;;;;;;90.43;13.68;;;;;;;;;;5062251;28;20114;-70
2022/01/16 04:10:55;;;;;;;76.65;12.63;;;;;;;;;;5063403;28;20109;-69
2022/01/16 04:13:21;;;;;;;69.18;11.15;;;;;;;;;;5063676;28;20457;-70
2022/01/16 04:15:48;;;;;;;89.05;8.98;;;;;;;;;;5060087;28;20029;-72
2022/01/16 04:18:13;;;;;;;123.97;10.77;;;;;;;;;;5062783;28;20489;-71
2022/01/16 04:20:39;;;;;;;106.45;11.98;;;;;;;;;;5078941;28;20051;-70
2022/01/16 04:23:06;;;;;;;95.97;13.43;;;;;;;;;;5063312;28;20394;-71
2022/01/16 04:25:32;;;;;;;132.50;12.23;;;;;;;;;;5062932;28;20086;-71
2022/01/16 04:27:58;;;;;;;98.63;11.68;;;;;;;;;;5060937;28;20036;-72
2022/01/16 04:30:24;;;;;;;74.63;13.43;;;;;;;;;;5062817;28;21468;-71
2022/01/16 04:32:50;;;;;;;119.43;12.85;;;;;;;;;;5063490;28;20036;-72
2022/01/16 04:35:15;;;;;;;107.97;13.57;;;;;;;;;;5063133;28;20036;-72
2022/01/16 04:37:40;;;;;;;133.77;12.98;;;;;;;;;;5061048;28;20115;-71
2022/01/16 04:40:07;;;;;;;57.60;11.93;;;;;;;;;;5062879;28;20123;-72
2022/01/16 04:45:17;;;;;;;94.35;12.40;;;;;;;;;;5062676;28;20029;-69
2022/01/16 04:47:42;;;;;;;93.80;11.18;;;;;;;;;;5063088;28;20231;-69
2022/01/16 04:50:11;;;;;;;42.60;10.35;;;;;;;;;;5060588;28;20506;-71
2022/01/16 04:52:38;;;;;;;67.68;11.45;;;;;;;;;;5062646;28;20078;-72
2022/01/16 04:55:03;;;;;;;63.55;11.30;;;;;;;;;;5061340;28;20115;-71
2022/01/16 04:57:29;;;;;;;88.97;11.57;;;;;;;;;;5062874;28;20036;-72
2022/01/16 04:59:54;;;;;;;83.38;10.52;;;;;;;;;;5062372;28;20095;-72
2022/01/16 05:02:20;;;;;;;96.53;11.25;;;;;;;;;;5061520;28;20037;-72
2022/01/16 05:04:45;;;;;;;28.17;9.85;;;;;;;;;;5062717;28;20064;-71
2022/01/16 05:07:11;;;;;;;44.53;10.02;;;;;;;;;;5061815;28;20044;-72
2022/01/16 05:09:36;;;;;;;40.20;10.60;;;;;;;;;;5062592;28;20067;-73
2022/01/16 05:12:08;;;;;;;21.05;9.10;;;;;;;;;;5061693;28;20040;-72
2022/01/16 05:17:17;;;;;;;37.85;10.57;;;;;;;;;;5062807;28;20060;-70
2022/01/16 05:19:44;;;;;;;41.90;10.60;;;;;;;;;;5061522;28;20432;-73
2022/01/16 05:22:10;;;;;;;44.92;11.55;;;;;;;;;;5061015;28;20358;-71
2022/01/16 05:24:35;;;;;;;29.40;11.57;;;;;;;;;;5077604;28;20028;-70
2022/01/16 05:27:01;;;;;;;29.42;11.80;;;;;;;;;;5077699;28;20044;-72
2022/01/16 05:29:26;;;;;;;33.47;11.70;;;;;;;;;;5060689;28;20039;-72
2022/01/16 05:31:52;;;;;;;16.08;7.15;;;;;;;;;;5077525;28;20118;-72
2022/01/16 05:34:18;;;;;;;29.50;12.23;;;;;;;;;;5077358;28;20036;-75
2022/01/16 05:36:44;;;;;;;33.40;12.60;;;;;;;;;;5077807;28;20081;-72
2022/01/16 05:39:11;;;;;;;31.60;13.00;;;;;;;;;;5044027;28;20044;-71
2022/01/16 05:41:37;;;;;;;29.65;13.75;;;;;;;;;;5061452;28;20412;-73
2022/01/16 05:44:02;;;;;;;28.88;12.90;;;;;;;;;;5060179;28;20040;-71
2022/01/16 05:46:28;;;;;;;25.77;12.88;;;;;;;;;;5060707;28;20029;-72
2022/01/16 05:48:54;;;;;;;25.17;11.82;;;;;;;;;;5061485;28;20551;-71
2022/01/16 05:51:19;;;;;;;24.00;12.52;;;;;;;;;;5060425;28;20389;-70
2022/01/16 05:53:45;;;;;;;21.45;10.30;;;;;;;;;;5062158;28;20040;-72
2022/01/16 05:56:12;;;;;;;21.45;9.85;;;;;;;;;;5059351;28;20052;-71
2022/01/16 05:58:39;;;;;;;17.83;9.75;;;;;;;;;;5061792;28;20045;-73
2022/01/16 06:01:04;;;;;;;20.05;10.68;;;;;;;;;;5065623;28;20048;-71
2022/01/16 06:03:30;;;;;;;10.82;6.78;;;;;;;;;;5062944;28;20420;-71
2022/01/16 06:05:55;;;;;;;19.73;10.18;;;;;;;;;;5058620;28;20059;-69
2022/01/16 06:08:21;;;;;;;20.35;9.35;;;;;;;;;;5061708;28;20115;-72
2022/01/16 06:10:46;;;;;;;26.60;11.90;;;;;;;;;;5060482;28;20374;-71
2022/01/16 06:13:12;;;;;;;37.22;12.93;;;;;;;;;;5061378;28;20052;-72
2022/01/16 06:15:40;;;;;;;27.67;11.25;;;;;;;;;;5061761;28;20040;-70
2022/01/16 06:18:06;;;;;;;24.63;11.77;;;;;;;;;;5060490;28;20047;-70
2022/01/16 06:20:31;;;;;;;30.73;12.18;;;;;;;;;;5043234;28;20056;-72
2022/01/16 06:22:57;;;;;;;56.55;10.90;;;;;;;;;;5061746;28;20040;-74
2022/01/16 06:25:23;;;;;;;33.65;10.27;;;;;;;;;;5060803;28;20045;-73
2022/01/16 06:27:49;;;;;;;21.00;9.15;;;;;;;;;;5058703;28;21088;-72
2022/01/16 06:30:15;;;;;;;26.13;9.13;;;;;;;;;;5060439;28;20033;-72
2022/01/16 06:32:41;;;;;;;49.83;12.45;;;;;;;;;;5060447;28;20054;-71
2022/01/16 06:35:08;;;;;;;33.55;10.48;;;;;;;;;;5060830;28;20039;-71
2022/01/16 06:37:34;;;;;;;35.78;10.77;;;;;;;;;;5062697;28;20032;-74
2022/01/16 06:39:59;;;;;;;34.17;11.38;;;;;;;;;;5069233;28;20036;-73
2022/01/16 06:42:25;;;;;;;37.08;11.68;;;;;;;;;;5062040;28;20037;-70
2022/01/16 06:44:50;;;;;;;31.80;9.25;;;;;;;;;;5062719;28;20071;-71
2022/01/16 06:47:17;;;;;;;36.88;11.82;;;;;;;;;;5060023;28;20072;-73
2022/01/16 06:49:43;;;;;;;44.22;12.77;;;;;;;;;;5060917;28;20036;-71
2022/01/16 06:52:08;;;;;;;42.70;12.00;;;;;;;;;;5061896;28;20039;-74
2022/01/16 06:54:34;;;;;;;34.28;11.32;;;;;;;;;;5061304;28;20047;-69
2022/01/16 06:56:59;;;;;;;36.25;13.48;;;;;;;;;;5068630;28;20033;-70
2022/01/16 06:59:25;;;;;;;36.47;12.80;;;;;;;;;;5061090;28;20024;-74
2022/01/16 07:01:50;;;;;;;30.95;12.73;;;;;;;;;;5066705;28;20412;-70
2022/01/16 07:04:16;;;;;;;39.75;15.27;;;;;;;;;;5060959;28;20060;-74
2022/01/16 07:06:41;;;;;;;29.80;13.15;;;;;;;;;;5060647;28;20103;-73
2022/01/16 07:09:07;;;;;;;37.63;14.18;;;;;;;;;;5061684;28;20036;-74
2022/01/16 07:11:32;;;;;;;31.20;13.70;;;;;;;;;;5075001;28;20045;-73
2022/01/16 07:13:58;;;;;;;36.50;14.15;;;;;;;;;;5061164;28;20036;-75
2022/01/16 07:16:23;;;;;;;23.00;11.65;;;;;;;;;;5061386;28;20602;-73
2022/01/16 07:18:49;;;;;;;31.70;12.82;;;;;;;;;;5061940;28;20044;-71
2022/01/16 07:21:15;;;;;;;32.72;13.55;;;;;;;;;;5059887;28;20028;-75
2022/01/16 07:23:42;;;;;;;34.22;14.15;;;;;;;;;;5060864;28;20159;-72
2022/01/16 07:26:08;;;;;;;31.90;13.07;;;;;;;;;;5063869;28;20119;-73
2022/01/16 07:28:33;;;;;;;25.65;10.85;;;;;;;;;;5064572;28;20138;-71
2022/01/16 07:30:59;;;;;;;31.17;13.02;;;;;;;;;;5064061;28;20040;-71
2022/01/16 07:33:24;;;;;;;35.90;16.17;;;;;;;;;;5063428;28;20036;-71
2022/01/16 07:35:50;;;;;;;36.28;14.70;;;;;;;;;;5064166;28;20210;-70
2022/01/16 07:38:15;;;;;;;36.05;14.77;;;;;;;;;;5079212;28;20093;-71
2022/01/16 07:40:41;;;;;;;27.77;13.48;;;;;;;;;;5064648;28;20025;-71
2022/01/16 07:43:07;;;;;;;29.35;13.00;;;;;;;;;;5062597;28;20048;-71
2022/01/16 07:45:33;;;;;;;35.58;13.38;;;;;;;;;;5061239;28;20035;-68
2022/01/16 07:47:59;;;;;;;36.67;14.85;;;;;;;;;;5063074;28;20040;-72
2022/01/16 07:50:25;;;;;;;27.58;11.75;;;;;;;;;;5063225;28;20056;-71
2022/01/16 07:52:50;;;;;;;28.65;13.27;;;;;;;;;;5063807;28;20048;-71
2022/01/16 07:55:17;;;;;;;27.50;13.32;;;;;;;;;;5062989;28;20115;-71
2022/01/16 07:57:43;;;;;;;27.85;13.10;;;;;;;;;;5063736;28;20397;-69
2022/01/16 08:00:10;;;;;;;29.08;14.85;;;;;;;;;;5078881;28;20032;-72
2022/01/16 08:02:38;;;;;;;25.00;13.05;;;;;;;;;;5063618;28;20123;-70
2022/01/16 08:05:04;;;;;;;20.60;10.18;;;;;;;;;;5064841;28;20556;-72
2022/01/16 08:07:30;;;;;;;29.00;14.25;;;;;;;;;;5062683;28;20047;-71
2022/01/16 08:09:55;;;;;;;27.25;12.63;;;;;;;;;;5064036;28;20404;-68
2022/01/16 08:12:21;;;;;;;31.70;15.45;;;;;;;;;;5062333;28;20047;-71
2022/01/16 08:14:46;;;;;;;30.75;14.52;;;;;;;;;;5064041;28;20108;-68
2022/01/16 08:17:11;;;;;;;24.45;11.25;;;;;;;;;;5075169;28;20100;-73
2022/01/16 08:19:38;;;;;;;26.58;13.15;;;;;;;;;;5056922;28;20048;-71
2022/01/16 08:22:03;;;;;;;33.83;14.35;;;;;;;;;;5061631;28;20135;-70
2022/01/16 08:24:29;;;;;;;23.33;12.80;;;;;;;;;;5060631;28;20539;-71
2022/01/16 08:26:54;;;;;;;19.63;10.95;;;;;;;;;;5061522;28;20046;-71
2022/01/16 08:29:20;;;;;;;21.42;11.68;;;;;;;;;;5061313;28;20062;-71
2022/01/16 08:31:46;;;;;;;23.80;12.43;;;;;;;;;;5060515;28;20119;-73
2022/01/16 08:34:11;;;;;;;20.27;10.25;;;;;;;;;;5060751;28;20513;-70
2022/01/16 08:36:37;;;;;;;20.52;12.38;;;;;;;;;;5060420;28;20110;-70
2022/01/16 08:39:03;;;;;;;22.58;12.45;;;;;;;;;;5062285;28;20150;-71
2022/01/16 08:41:29;;;;;;;19.10;11.50;;;;;;;;;;5061000;28;20044;-71
2022/01/16 08:43:54;;;;;;;19.10;12.15;;;;;;;;;;5062206;28;20416;-71
2022/01/16 08:46:21;;;;;;;18.77;11.07;;;;;;;;;;5060224;28;20024;-71
2022/01/16 08:48:47;;;;;;;18.38;11.40;;;;;;;;;;5061810;28;20051;-71
2022/01/16 08:51:13;;;;;;;16.70;11.23;;;;;;;;;;5059964;28;20831;-71
2022/01/16 08:53:39;;;;;;;13.90;8.93;;;;;;;;;;5061428;28;20036;-70
2022/01/16 08:56:04;;;;;;;17.13;10.52;;;;;;;;;;5062218;28;20446;-72
2022/01/16 08:58:30;;;;;;;18.02;11.38;;;;;;;;;;5060349;28;20040;-71
2022/01/16 09:00:55;;;;;;;16.77;10.77;;;;;;;;;;5077290;28;20082;-72
2022/01/16 09:03:22;;;;;;;19.52;11.65;;;;;;;;;;5058970;28;20040;-71
2022/01/16 09:05:48;;;;;;;16.02;10.70;;;;;;;;;;5061644;28;20255;-71
2022/01/16 09:08:15;;;;;;;17.17;10.50;;;;;;;;;;5062909;28;20044;-72
2022/01/16 09:10:41;;;;;;;17.75;10.18;;;;;;;;;;5060342;28;20499;-72
2022/01/16 09:13:11;;;;;;;17.10;11.10;;;;;;;;;;5060330;28;20990;-72
2022/01/16 09:15:38;;;;;;;15.15;10.20;;;;;;;;;;5042511;28;20090;-73
2022/01/16 09:18:04;;;;;;;18.10;10.68;;;;;;;;;;5061735;28;20036;-71
2022/01/16 09:20:29;;;;;;;14.88;10.00;;;;;;;;;;5062051;28;20505;-71
2022/01/16 09:22:55;;;;;;;16.40;10.73;;;;;;;;;;5078158;28;20055;-73
2022/01/16 09:25:22;;;;;;;14.57;10.70;;;;;;;;;;5075880;28;20040;-71
2022/01/16 09:27:48;;;;;;;13.15;9.77;;;;;;;;;;5061875;28;20066;-76
2022/01/16 09:30:14;;;;;;;13.85;10.10;;;;;;;;;;5078157;28;20059;-75
2022/01/16 09:32:40;;;;;;;14.25;9.27;;;;;;;;;;5061710;28;20032;-75
2022/01/16 09:35:07;;;;;;;12.55;9.63;;;;;;;;;;5045045;28;20024;-74
2022/01/16 09:37:33;;;;;;;15.70;11.05;;;;;;;;;;5062816;28;20109;-73
2022/01/16 09:39:59;;;;;;;14.93;10.02;;;;;;;;;;5061044;28;20040;-74
2022/01/16 09:42:26;;;;;;;15.70;10.32;;;;;;;;;;5061941;28;20045;-74
2022/01/16 09:44:52;;;;;;;16.00;10.20;;;;;;;;;;5061187;28;20449;-72
2022/01/16 09:47:17;;;;;;;12.30;9.48;;;;;;;;;;5059105;28;20493;-72
2022/01/16 09:49:44;;;;;;;12.77;9.23;;;;;;;;;;5061293;28;20711;-72
2022/01/16 09:52:13;;;;;;;15.93;9.52;;;;;;;;;;5061961;28;20082;-73
2022/01/16 09:54:39;;;;;;;13.40;9.10;;;;;;;;;;5061942;28;20086;-75
2022/01/16 09:57:06;;;;;;;11.85;9.25;;;;;;;;;;5061490;28;20743;-73
2022/01/16 09:59:32;;;;;;;12.85;9.32;;;;;;;;;;5044057;28;20733;-73
2022/01/16 10:01:58;;;;;;;12.63;9.00;;;;;;;;;;5058405;28;20036;-75
2022/01/16 10:04:38;;;;;;;12.05;8.85;;;;;;;;;;5058678;28;20098;-73
2022/01/16 10:07:12;;;;;;;11.52;8.77;;;;;;;;;;5041870;28;20067;-74
2022/01/16 10:09:40;;;;;;;10.50;7.78;;;;;;;;;;5074740;28;20040;-75
2022/01/16 10:12:16;;;;;;;11.43;8.77;;;;;;;;;;5059368;28;20032;-76
2022/01/16 10:14:48;;;;;;;12.05;8.65;;;;;;;;;;5060296;28;20043;-75
2022/01/16 10:17:21;;;;;;;13.98;9.55;;;;;;;;;;5061568;28;20036;-73
2022/01/16 10:20:07;;;;;;;11.18;8.57;;;;;;;;;;5061602;28;20405;-74
2022/01/16 10:22:52;;;;;;;12.70;9.02;;;;;;;;;;5042812;28;20040;-73
2022/01/16 10:25:47;;;;;;;12.50;8.65;;;;;;;;;;5061626;28;20135;-73
2022/01/16 10:28:20;;;;;;;13.25;8.93;;;;;;;;;;5063091;28;20047;-77
2022/01/16 10:30:48;;;;;;;12.13;8.73;;;;;;;;;;5060061;28;20045;-72
2022/01/16 10:33:23;;;;;;;13.98;9.43;;;;;;;;;;5059880;28;20044;-73
2022/01/16 10:35:51;;;;;;;12.05;8.80;;;;;;;;;;5074381;28;20060;-72
2022/01/16 10:38:29;;;;;;;12.20;8.55;;;;;;;;;;5060965;28;20037;-72
2022/01/16 10:40:57;;;;;;;12.88;8.55;;;;;;;;;;5060958;28;20032;-72
2022/01/16 10:43:45;;;;;;;11.68;8.82;;;;;;;;;;5064309;28;20036;-75
2022/01/16 10:46:13;;;;;;;10.85;7.93;;;;;;;;;;5059489;28;20025;-72
2022/01/16 10:48:40;;;;;;;12.18;8.60;;;;;;;;;;5035932;28;20032;-78
2022/01/16 10:51:19;;;;;;;11.27;8.00;;;;;;;;;;5059908;28;20025;-75
2022/01/16 10:53:44;;;;;;;13.48;8.48;;;;;;;;;;5032544;28;20432;-75
2022/01/16 10:56:10;;;;;;;12.95;9.20;;;;;;;;;;5059962;28;20040;-73
2022/01/16 10:58:35;;;;;;;12.98;9.10;;;;;;;;;;5060695;28;20032;-72
2022/01/16 11:01:07;;;;;;;14.23;9.35;;;;;;;;;;5060306;28;20028;-75
2022/01/16 11:03:48;;;;;;;14.05;8.80;;;;;;;;;;5060416;28;20047;-73
2022/01/16 11:06:18;;;;;;;11.35;7.57;;;;;;;;;;5060350;28;20040;-72
2022/01/16 11:08:59;;;;;;;10.52;8.02;;;;;;;;;;5061005;28;20044;-73
2022/01/16 11:11:25;;;;;;;11.52;8.15;;;;;;;;;;5061088;28;20457;-74
2022/01/16 11:13:51;;;;;;;12.35;8.20;;;;;;;;;;5060654;28;20046;-71
2022/01/16 11:16:17;;;;;;;12.20;8.43;;;;;;;;;;5060615;28;20483;-71
2022/01/16 11:18:48;;;;;;;11.55;7.88;;;;;;;;;;5059567;28;20036;-72
2022/01/16 11:21:19;;;;;;;12.43;8.60;;;;;;;;;;5054138;28;20040;-71
2022/01/16 11:26:20;;;;;;;9.68;6.00;;;;;;;;;;5059877;28;20044;-76
2022/01/16 11:28:47;;;;;;;11.48;6.53;;;;;;;;;;5055214;28;20044;-69
2022/01/16 11:31:14;;;;;;;8.32;5.13;;;;;;;;;;5056896;28;20039;-69
2022/01/16 11:33:41;;;;;;;6.55;5.22;;;;;;;;;;5060589;28;20040;-70
2022/01/16 11:36:13;;;;;;;7.28;5.28;;;;;;;;;;5059547;28;20024;-69
2022/01/16 11:39:00;;;;;;;10.25;6.43;;;;;;;;;;5057236;28;20575;-69
2022/01/16 11:41:36;;;;;;;10.13;7.55;;;;;;;;;;5057195;28;20040;-72
2022/01/16 11:44:20;;;;;;;8.18;5.57;;;;;;;;;;5064481;28;20036;-71
2022/01/16 11:46:50;;;;;;;11.43;5.10;;;;;;;;;;5064572;28;20076;-71
2022/01/16 11:49:19;;;;;;;8.98;7.00;;;;;;;;;;5059551;28;20039;-71
2022/01/16 11:51:51;;;;;;;9.77;6.45;;;;;;;;;;5058233;28;20036;-70
2022/01/16 11:54:28;;;;;;;5.93;4.65;;;;;;;;;;5061297;28;20036;-71
2022/01/16 11:57:00;;;;;;;5.93;4.60;;;;;;;;;;5060713;28;20043;-72
2022/01/16 11:59:27;;;;;;;10.52;6.38;;;;;;;;;;5062198;28;20040;-71
2022/01/16 12:01:55;;;;;;;11.25;7.55;;;;;;;;;;5060835;28;20451;-71
2022/01/16 12:04:33;;;;;;;12.40;8.10;;;;;;;;;;5059030;28;20045;-72
2022/01/16 12:07:22;;;;;;;10.07;7.03;;;;;;;;;;5063716;28;20037;-71
2022/01/16 12:09:57;;;;;;;9.45;6.40;;;;;;;;;;5078660;28;20166;-72
2022/01/16 12:12:22;;;;;;;8.82;5.00;;;;;;;;;;5064955;28;20082;-74
2022/01/16 12:14:57;;;;;;;7.57;5.55;;;;;;;;;;5062210;28;20071;-73
2022/01/16 12:17:49;;;;;;;10.00;6.97;;;;;;;;;;5063183;28;20037;-76
2022/01/16 12:20:17;;;;;;;12.90;5.50;;;;;;;;;;5062674;28;20111;-70
2022/01/16 12:22:46;;;;;;;6.65;4.43;;;;;;;;;;5062403;28;20242;-72
2022/01/16 12:25:24;;;;;;;9.25;6.45;;;;;;;;;;5064489;28;20032;-72
2022/01/16 12:28:02;;;;;;;8.98;5.40;;;;;;;;;;5063582;28;20124;-72
2022/01/16 12:30:52;;;;;;;6.30;4.50;;;;;;;;;;5064704;28;20055;-72
2022/01/16 12:33:24;;;;;;;6.43;4.60;;;;;;;;;;5063992;28;20044;-74
2022/01/16 12:35:54;;;;;;;;;;;;;;;;;;5062707;28;20036;-72
2022/01/16 12:38:26;;;;;;;9.60;6.15;;;;;;;;;;5062425;28;19916;-72
2022/01/16 12:40:59;;;;;;;13.50;6.10;;;;;;;;;;5062674;28;20374;-71
2022/01/16 12:43:30;;;;;;;10.77;5.63;;;;;;;;;;5062713;28;20127;-71
2022/01/16 12:45:56;;;;;;;9.93;6.40;;;;;;;;;;5060958;28;20409;-72
2022/01/16 12:48:21;;;;;;;11.00;6.10;;;;;;;;;;5061933;28;20513;-73
2022/01/16 12:50:48;;;;;;;11.38;7.50;;;;;;;;;;5063994;28;20107;-72
2022/01/16 12:53:29;;;;;;;9.82;5.43;;;;;;;;;;5046370;28;20040;-72
2022/01/16 12:55:54;;;;;;;8.02;5.97;;;;;;;;;;5059412;28;20040;-72
2022/01/16 12:58:22;;;;;;;9.70;6.55;;;;;;;;;;5064156;28;20041;-72
2022/01/16 13:01:01;;;;;;;8.35;5.57;;;;;;;;;;5062636;28;20518;-71
2022/01/16 13:03:28;;;;;;;8.43;5.72;;;;;;;;;;5062156;28;20028;-72
2022/01/16 13:06:18;;;;;;;6.85;4.82;;;;;;;;;;5061000;28;20036;-72
2022/01/16 13:09:07;;;;;;;12.63;5.05;;;;;;;;;;5060581;28;20028;-71
2022/01/16 13:11:45;;;;;;;8.45;6.25;;;;;;;;;;5060437;28;20044;-72
2022/01/16 13:14:16;;;;;;;6.15;4.78;;;;;;;;;;5062154;28;20120;-70
2022/01/16 13:16:54;;;;;;;11.93;7.15;;;;;;;;;;5042853;28;20038;-72
2022/01/16 13:19:24;;;;;;;13.10;7.88;;;;;;;;;;5059612;28;20094;-71
2022/01/16 13:22:12;;;;;;;12.52;7.65;;;;;;;;;;5061963;28;20461;-72
2022/01/16 13:24:47;;;;;;;10.02;6.38;;;;;;;;;;5065207;28;21363;-72
2022/01/16 13:27:20;;;;;;;11.60;6.97;;;;;;;;;;5063975;28;20055;-71
2022/01/16 13:30:00;;;;;;;10.45;5.90;;;;;;;;;;5037864;28;20936;-71
2022/01/16 13:32:32;;;;;;;13.70;8.20;;;;;;;;;;5060842;28;20028;-72
2022/01/16 13:34:58;;;;;;;12.47;7.83;;;;;;;;;;5063297;28;20448;-71
2022/01/16 13:37:36;;;;;;;13.20;8.07;;;;;;;;;;5064938;28;21024;-74
2022/01/16 13:40:10;;;;;;;15.52;8.13;;;;;;;;;;5070151;28;20044;-73
2022/01/16 13:42:52;;;;;;;15.77;7.30;;;;;;;;;;5069220;28;20032;-73
2022/01/16 13:45:20;;;;;;;14.68;7.93;;;;;;;;;;5064464;28;20040;-72
2022/01/16 13:47:56;;;;;;;13.68;7.85;;;;;;;;;;5054366;28;20044;-72
2022/01/16 13:50:24;;;;;;;12.90;8.13;;;;;;;;;;5056716;28;20119;-70
2022/01/16 13:52:59;;;;;;;18.15;8.57;;;;;;;;;;5040984;28;20043;-71
2022/01/16 13:55:26;;;;;;;12.95;8.15;;;;;;;;;;5056847;28;20039;-72
2022/01/16 13:57:53;;;;;;;9.60;6.43;;;;;;;;;;5060208;28;21080;-74
2022/01/16 14:00:21;;;;;;;10.55;6.18;;;;;;;;;;5059917;28;20032;-74
2022/01/16 14:02:47;;;;;;;9.93;6.95;;;;;;;;;;5040139;28;20044;-73
2022/01/16 14:05:23;;;;;;;15.27;8.73;;;;;;;;;;5058273;28;20055;-73
2022/01/16 14:07:49;;;;;;;13.30;8.32;;;;;;;;;;5042748;28;20025;-73
2022/01/16 14:10:38;;;;;;;17.58;8.15;;;;;;;;;;5057154;28;20543;-74
2022/01/16 14:13:04;;;;;;;12.13;7.10;;;;;;;;;;5057577;28;20036;-73
2022/01/16 14:15:30;;;;;;;12.68;7.65;;;;;;;;;;5041424;28;20025;-74
2022/01/16 14:17:57;;;;;;;14.45;8.38;;;;;;;;;;5059814;28;20489;-73
2022/01/16 14:20:47;;;;;;;14.77;9.18;;;;;;;;;;5059996;28;20119;-73
2022/01/16 14:23:09;;;;;;;21.75;8.80;;;;;;;;;;5059080;28;20036;-73
2022/01/16 14:25:35;;;;;;;9.85;6.40;;;;;;;;;;5058655;28;20072;-74
2022/01/16 14:28:01;;;;;;;14.18;9.05;;;;;;;;;;5059845;28;20071;-74
2022/01/16 14:30:26;;;;;;;11.85;6.57;;;;;;;;;;5059894;28;20036;-72
2022/01/16 14:32:52;;;;;;;13.38;8.57;;;;;;;;;;5059753;28;20032;-73
2022/01/16 14:35:19;;;;;;;15.30;9.00;;;;;;;;;;5060957;28;20123;-74
2022/01/16 14:37:44;;;;;;;13.43;8.45;;;;;;;;;;5062506;28;20281;-72
2022/01/16 14:40:10;;;;;;;11.32;6.95;;;;;;;;;;5061857;28;20179;-73
2022/01/16 14:42:37;;;;;;;14.13;8.18;;;;;;;;;;5057894;28;20040;-75
2022/01/16 14:45:07;;;;;;;12.95;7.95;;;;;;;;;;5060506;28;20504;-73
2022/01/16 14:47:33;;;;;;;15.60;8.68;;;;;;;;;;5058866;28;20036;-74
2022/01/16 14:50:14;;;;;;;13.95;8.73;;;;;;;;;;5061965;28;20578;-74
2022/01/16 14:52:43;;;;;;;16.37;8.70;;;;;;;;;;5063154;28;20075;-72
2022/01/16 14:55:10;;;;;;;15.73;9.13;;;;;;;;;;5067755;28;20044;-72
2022/01/16 14:57:38;;;;;;;15.50;8.80;;;;;;;;;;5057092;28;20040;-72
2022/01/16 15:00:06;;;;;;;14.07;8.55;;;;;;;;;;5059961;28;20033;-72
2022/01/16 15:02:36;;;;;;;16.58;9.52;;;;;;;;;;5059186;28;20119;-75
2022/01/16 15:05:02;;;;;;;15.80;8.98;;;;;;;;;;5059957;28;20083;-73
2022/01/16 15:07:28;;;;;;;15.52;8.77;;;;;;;;;;5039985;28;20489;-73
2022/01/16 15:09:53;;;;;;;14.80;8.65;;;;;;;;;;5058475;28;20135;-73
2022/01/16 15:12:28;;;;;;;15.38;8.60;;;;;;;;;;5043492;28;20098;-73
2022/01/16 15:14:54;;;;;;;17.48;8.90;;;;;;;;;;5044723;28;20102;-76
2022/01/16 15:17:21;;;;;;;15.30;9.00;;;;;;;;;;5060591;28;20040;-73